Time;durP1;ratioP1;P1;durP2;ratioP2;P2;SDS_P1;SDS_P2;PMS_P1;PMS_P2;Temp;Humidity;BMP_temperature;BMP_pressure;BME280_temperature;BME280_humidity;BME280_pressure;Samples;Min_cycle;Max_cycle;Signal;HPM_P1;HPM_P2
2022/07/20 00:00:03;;;;;;;7.30;4.78;;;22.30;90.90;;;;;;5054951;28;20218;-67
2022/07/20 00:02:31;;;;;;;9.43;5.32;;;22.20;90.80;;;;;;5054035;28;20233;-67
2022/07/20 00:04:58;;;;;;;5.93;4.93;;;22.20;90.80;;;;;;5053100;28;20201;-67
2022/07/20 00:07:24;;;;;;;8.13;5.05;;;22.20;90.80;;;;;;5052835;28;20218;-67
2022/07/20 00:12:35;;;;;;;7.20;5.30;;;22.10;90.90;;;;;;5053432;28;20693;-67
2022/07/20 00:15:02;;;;;;;6.38;5.10;;;22.10;91.10;;;;;;5053887;28;20726;-66
2022/07/20 00:17:30;;;;;;;7.53;5.20;;;22.00;91.10;;;;;;5040089;28;20217;-67
2022/07/20 00:19:57;;;;;;;5.90;4.68;;;22.00;91.20;;;;;;5050454;28;20205;-67
2022/07/20 00:22:24;;;;;;;5.03;4.43;;;22.00;91.40;;;;;;5053886;28;20244;-67
2022/07/20 00:24:50;;;;;;;5.57;4.82;;;22.00;91.60;;;;;;5052764;28;20217;-67
2022/07/20 00:27:17;;;;;;;5.20;4.65;;;21.90;91.70;;;;;;5053470;28;20217;-67
2022/07/20 00:29:44;;;;;;;11.90;5.43;;;21.90;91.80;;;;;;5045288;28;20213;-67
2022/07/20 00:32:11;;;;;;;6.35;4.72;;;21.90;92.00;;;;;;5054039;28;20637;-66
2022/07/20 00:34:39;;;;;;;5.93;5.30;;;21.90;92.20;;;;;;5053811;28;20209;-67
2022/07/20 00:37:05;;;;;;;5.55;4.90;;;21.80;92.20;;;;;;5049453;28;20204;-65
2022/07/20 00:39:32;;;;;;;5.93;4.95;;;21.80;92.30;;;;;;5051475;28;20217;-67
2022/07/20 00:41:59;;;;;;;7.22;5.47;;;21.80;92.40;;;;;;5051979;28;20198;-68
2022/07/20 00:44:26;;;;;;;6.22;5.00;;;21.80;92.50;;;;;;5052661;28;20206;-67
2022/07/20 00:46:55;;;;;;;6.45;5.05;;;21.70;92.60;;;;;;5038355;28;20738;-67
2022/07/20 00:49:22;;;;;;;6.30;5.15;;;21.70;92.60;;;;;;5050670;28;20599;-66
2022/07/20 00:51:50;;;;;;;6.55;5.30;;;21.70;92.70;;;;;;5052626;28;20225;-66
2022/07/20 00:54:18;;;;;;;6.03;4.88;;;21.70;92.80;;;;;;5046702;28;20203;-68
2022/07/20 00:56:44;;;;;;;6.32;4.97;;;21.60;92.80;;;;;;5050576;28;20206;-67
2022/07/20 00:59:11;;;;;;;6.03;5.35;;;21.60;92.90;;;;;;5050836;28;20209;-67
2022/07/20 01:01:39;;;;;;;5.88;4.88;;;21.60;93.00;;;;;;5051908;28;20206;-68
2022/07/20 01:04:06;;;;;;;5.57;5.03;;;21.60;93.10;;;;;;5052137;28;20717;-68
2022/07/20 01:06:33;;;;;;;8.25;5.13;;;21.60;93.20;;;;;;5051524;28;20681;-68
2022/07/20 01:09:02;;;;;;;6.78;4.80;;;21.50;93.10;;;;;;5038078;28;20213;-68
2022/07/20 01:11:28;;;;;;;7.35;5.07;;;21.50;93.10;;;;;;5048768;28;20217;-68
2022/07/20 01:14:01;;;;;;;8.07;6.45;;;21.40;93.10;;;;;;5052344;28;20202;-69
2022/07/20 01:16:28;;;;;;;6.65;5.30;;;21.40;93.30;;;;;;5052465;28;20233;-67
2022/07/20 01:18:55;;;;;;;7.18;5.20;;;21.30;93.40;;;;;;5050871;28;20571;-68
2022/07/20 01:21:23;;;;;;;8.35;5.72;;;21.30;93.60;;;;;;5045097;28;20210;-69
2022/07/20 01:23:50;;;;;;;6.85;5.20;;;21.30;93.70;;;;;;5051127;28;20686;-68
2022/07/20 01:26:17;;;;;;;9.63;5.80;;;21.20;93.70;;;;;;5051996;28;20461;-68
2022/07/20 01:28:44;;;;;;;6.10;5.47;;;21.20;93.90;;;;;;5051452;28;20245;-68
2022/07/20 01:31:11;;;;;;;6.28;5.30;;;21.20;94.10;;;;;;5049484;28;20546;-68
2022/07/20 01:33:38;;;;;;;6.78;5.55;;;21.20;94.20;;;;;;5046367;28;20650;-68
2022/07/20 01:36:05;;;;;;;7.80;5.47;;;21.10;94.30;;;;;;5050081;28;20216;-68
2022/07/20 01:38:33;;;;;;;6.40;4.93;;;21.10;94.40;;;;;;5042550;28;20572;-68
2022/07/20 01:41:00;;;;;;;7.50;5.35;;;21.00;94.40;;;;;;5051271;28;20198;-68
2022/07/20 01:43:27;;;;;;;9.10;5.40;;;21.00;94.50;;;;;;5051609;28;20228;-67
2022/07/20 01:45:53;;;;;;;6.22;5.18;;;20.90;94.50;;;;;;5051117;28;20209;-68
2022/07/20 01:48:21;;;;;;;9.13;4.57;;;20.90;94.60;;;;;;5049986;28;20230;-69
2022/07/20 01:50:47;;;;;;;6.93;5.35;;;20.80;94.60;;;;;;5036976;28;20296;-68
2022/07/20 01:53:14;;;;;;;9.90;5.57;;;20.80;94.70;;;;;;5051560;28;20202;-68
2022/07/20 01:55:42;;;;;;;5.93;5.07;;;20.80;94.80;;;;;;5051673;28;20210;-68
2022/07/20 01:58:09;;;;;;;5.50;4.65;;;20.70;94.90;;;;;;5051860;28;20218;-67
2022/07/20 02:00:36;;;;;;;5.50;4.63;;;20.70;94.90;;;;;;5051895;28;20655;-67
2022/07/20 02:03:03;;;;;;;6.45;5.07;;;20.70;95.00;;;;;;5046006;28;20218;-68
2022/07/20 02:05:30;;;;;;;5.68;5.10;;;20.70;95.00;;;;;;5046707;28;20209;-68
2022/07/20 02:07:57;;;;;;;5.63;5.03;;;20.60;95.10;;;;;;5051917;28;20236;-67
2022/07/20 02:10:23;;;;;;;11.25;5.47;;;20.60;95.20;;;;;;5051672;28;20560;-69
2022/07/20 02:12:51;;;;;;;6.13;5.28;;;20.50;95.30;;;;;;5051008;28;20210;-69
2022/07/20 02:17:59;;;;;;;7.57;5.18;;;20.40;95.60;;;;;;5049884;28;20216;-68
2022/07/20 02:20:26;;;;;;;9.85;5.25;;;20.40;95.60;;;;;;5053326;28;20210;-67
2022/07/20 02:22:52;;;;;;;7.05;5.43;;;20.40;95.90;;;;;;5053447;28;20241;-68
2022/07/20 02:25:19;;;;;;;7.03;5.20;;;20.30;96.00;;;;;;5055004;28;20720;-68
2022/07/20 02:27:46;;;;;;;9.80;5.22;;;20.30;96.10;;;;;;5055060;28;20206;-68
2022/07/20 02:30:14;;;;;;;7.32;5.68;;;20.20;96.30;;;;;;5054537;28;20215;-68
2022/07/20 02:32:41;;;;;;;7.50;5.63;;;20.20;96.50;;;;;;5052776;28;20259;-67
2022/07/20 02:35:08;;;;;;;7.13;5.40;;;20.20;96.70;;;;;;5047686;28;20212;-68
2022/07/20 02:37:35;;;;;;;6.95;5.18;;;20.20;96.90;;;;;;5054943;28;20218;-69
2022/07/20 02:40:02;;;;;;;5.95;5.32;;;20.10;96.90;;;;;;5054851;28;20629;-68
2022/07/20 02:42:29;;;;;;;7.90;5.63;;;20.10;96.90;;;;;;5047987;28;20207;-67
2022/07/20 02:44:56;;;;;;;8.32;5.45;;;20.10;97.20;;;;;;5047880;28;20233;-67
2022/07/20 02:47:24;;;;;;;5.57;4.40;;;20.10;97.40;;;;;;5054472;28;20234;-67
2022/07/20 02:49:51;;;;;;;8.07;5.47;;;20.00;97.50;;;;;;5049199;28;20209;-68
2022/07/20 02:52:20;;;;;;;8.80;4.93;;;20.00;97.60;;;;;;5054280;28;20209;-67
2022/07/20 02:54:47;;;;;;;5.30;4.80;;;20.00;97.80;;;;;;5050236;28;20209;-68
2022/07/20 02:57:14;;;;;;;8.75;5.30;;;20.00;97.80;;;;;;5054238;28;20202;-67
2022/07/20 02:59:40;;;;;;;8.45;5.63;;;20.00;98.00;;;;;;5053764;28;20214;-68
2022/07/20 03:02:07;;;;;;;9.48;5.47;;;20.00;98.00;;;;;;5052039;28;20213;-69
2022/07/20 03:04:35;;;;;;;7.18;4.97;;;20.00;98.10;;;;;;5053250;28;20716;-69
2022/07/20 03:07:02;;;;;;;7.80;5.38;;;20.00;98.20;;;;;;5053752;28;20650;-68
2022/07/20 03:09:29;;;;;;;11.48;5.35;;;20.00;98.30;;;;;;5054207;28;20682;-68
2022/07/20 03:11:55;;;;;;;5.57;5.03;;;20.00;98.40;;;;;;5053139;28;20209;-68
2022/07/20 03:14:22;;;;;;;8.77;5.93;;;20.00;98.50;;;;;;5052455;28;20659;-69
2022/07/20 03:16:51;;;;;;;6.85;5.57;;;20.00;98.50;;;;;;5043996;28;20656;-68
2022/07/20 03:19:18;;;;;;;7.35;5.22;;;20.00;98.60;;;;;;5048087;28;20206;-68
2022/07/20 03:21:46;;;;;;;7.88;6.13;;;20.00;98.80;;;;;;5042067;28;20221;-67
2022/07/20 03:24:13;;;;;;;9.63;5.78;;;20.00;98.90;;;;;;5046363;28;20225;-69
2022/07/20 03:26:39;;;;;;;7.20;5.22;;;20.10;99.00;;;;;;5053700;28;20234;-68
2022/07/20 03:29:06;;;;;;;9.10;5.43;;;20.00;99.10;;;;;;5051637;28;20217;-68
2022/07/20 03:31:33;;;;;;;5.85;4.75;;;20.10;99.10;;;;;;5053396;28;20584;-68
2022/07/20 03:34:00;;;;;;;7.63;5.95;;;20.00;99.20;;;;;;5053237;28;20206;-68
2022/07/20 03:36:26;;;;;;;11.57;5.45;;;20.10;99.30;;;;;;5052797;28;20215;-68
2022/07/20 03:38:54;;;;;;;7.13;5.53;;;20.10;99.30;;;;;;5053778;28;20202;-68
2022/07/20 03:41:21;;;;;;;7.25;5.07;;;20.20;99.20;;;;;;5054098;28;20216;-68
2022/07/20 03:43:49;;;;;;;6.05;5.15;;;20.20;99.30;;;;;;5052685;28;20228;-68
2022/07/20 03:46:17;;;;;;;8.88;5.00;;;20.30;99.20;;;;;;5051074;28;20208;-68
2022/07/20 03:48:44;;;;;;;6.53;5.28;;;20.30;99.00;;;;;;5052203;28;20198;-68
2022/07/20 03:51:11;;;;;;;6.30;5.50;;;20.40;99.00;;;;;;5046305;28;20214;-68
2022/07/20 03:53:38;;;;;;;6.05;5.07;;;20.40;99.00;;;;;;5053665;28;20197;-69
2022/07/20 03:56:06;;;;;;;7.47;5.63;;;20.50;98.90;;;;;;5053166;28;20205;-68
2022/07/20 03:58:33;;;;;;;6.97;5.68;;;20.50;98.90;;;;;;5051572;28;20221;-68
2022/07/20 04:01:00;;;;;;;6.38;4.95;;;20.50;98.80;;;;;;5044781;28;20206;-68
2022/07/20 04:03:27;;;;;;;6.05;5.45;;;20.60;98.80;;;;;;5053338;28;20705;-69
2022/07/20 04:05:54;;;;;;;7.55;5.80;;;20.60;98.90;;;;;;5051083;28;20210;-68
2022/07/20 04:08:20;;;;;;;7.05;5.43;;;20.60;98.80;;;;;;5053321;28;20206;-68
2022/07/20 04:10:47;;;;;;;10.32;5.78;;;20.70;98.90;;;;;;5052678;28;20638;-69
2022/07/20 04:13:15;;;;;;;7.05;6.07;;;20.70;98.90;;;;;;5050499;28;20209;-68
2022/07/20 04:15:42;;;;;;;7.80;5.30;;;20.70;98.80;;;;;;5048475;28;20206;-67
2022/07/20 04:18:09;;;;;;;6.80;5.47;;;20.70;98.80;;;;;;5051038;28;20561;-69
2022/07/20 04:20:36;;;;;;;8.65;5.38;;;20.80;98.90;;;;;;5053283;28;20574;-68
2022/07/20 04:23:02;;;;;;;6.90;6.07;;;20.80;98.90;;;;;;5052842;28;20209;-68
2022/07/20 04:25:29;;;;;;;7.57;5.43;;;20.90;98.90;;;;;;5050093;28;20230;-68
2022/07/20 04:27:58;;;;;;;6.78;5.57;;;21.00;99.00;;;;;;5050527;28;20213;-68
2022/07/20 04:30:26;;;;;;;7.45;6.00;;;21.00;99.00;;;;;;5052761;28;20555;-68
2022/07/20 04:32:52;;;;;;;8.43;5.28;;;21.10;99.00;;;;;;5051982;28;20289;-68
2022/07/20 04:35:20;;;;;;;10.75;5.63;;;21.20;99.10;;;;;;5045269;28;20214;-68
2022/07/20 04:37:46;;;;;;;8.82;5.85;;;21.20;99.10;;;;;;5048509;28;20210;-68
2022/07/20 04:40:13;;;;;;;6.93;5.60;;;21.30;99.10;;;;;;5052198;28;20217;-68
2022/07/20 04:42:40;;;;;;;6.90;5.95;;;21.30;99.00;;;;;;5051811;28;20208;-68
2022/07/20 04:45:07;;;;;;;9.30;5.95;;;21.40;99.00;;;;;;5051412;28;20226;-69
2022/07/20 04:47:36;;;;;;;11.45;5.80;;;21.50;99.00;;;;;;5048550;28;20249;-69
2022/07/20 04:50:02;;;;;;;9.32;6.20;;;21.40;98.90;;;;;;5048830;28;20202;-68
2022/07/20 04:52:29;;;;;;;7.43;5.50;;;21.60;99.00;;;;;;5038633;28;20210;-69
2022/07/20 04:54:56;;;;;;;6.10;5.10;;;21.60;99.10;;;;;;5051514;28;20209;-69
2022/07/20 04:57:22;;;;;;;10.75;6.00;;;21.60;99.10;;;;;;5046136;28;20790;-69
2022/07/20 04:59:49;;;;;;;6.35;5.22;;;21.60;99.10;;;;;;5052095;28;20209;-68
2022/07/20 05:02:16;;;;;;;7.70;5.65;;;21.70;99.20;;;;;;5050606;28;20210;-69
2022/07/20 05:04:46;;;;;;;15.95;6.50;;;21.70;99.20;;;;;;5050720;28;20230;-68
2022/07/20 05:07:13;;;;;;;12.50;5.88;;;21.80;99.20;;;;;;5049904;28;20582;-69
2022/07/20 05:09:40;;;;;;;9.02;6.38;;;21.80;99.20;;;;;;5052075;28;20213;-68
2022/07/20 05:12:07;;;;;;;10.32;6.18;;;21.80;99.20;;;;;;5052176;28;20202;-70
2022/07/20 05:14:34;;;;;;;10.32;5.57;;;21.90;99.30;;;;;;5051893;28;20205;-68
2022/07/20 05:17:01;;;;;;;7.50;5.90;;;22.00;99.50;;;;;;5050156;28;20217;-69
2022/07/20 05:19:27;;;;;;;9.13;6.30;;;22.00;99.50;;;;;;5037842;28;20212;-68
2022/07/20 05:21:57;;;;;;;11.23;7.07;;;22.10;99.50;;;;;;5043369;28;20244;-69
2022/07/20 05:24:24;;;;;;;9.60;6.00;;;22.10;99.40;;;;;;5052229;28;20248;-68
2022/07/20 05:26:51;;;;;;;9.57;5.15;;;22.20;99.40;;;;;;5049362;28;20701;-68
2022/07/20 05:29:18;;;;;;;7.68;4.57;;;22.20;99.30;;;;;;5047223;28;20198;-69
2022/07/20 05:31:45;;;;;;;7.70;5.30;;;22.30;99.20;;;;;;5052512;28;20231;-69
2022/07/20 05:34:11;;;;;;;6.70;4.90;;;22.40;99.10;;;;;;5051512;28;20221;-69
2022/07/20 05:36:38;;;;;;;7.05;5.65;;;22.40;98.70;;;;;;5051596;28;20654;-69
2022/07/20 05:39:09;;;;;;;7.07;5.35;;;22.40;98.40;;;;;;5052396;28;20644;-69
2022/07/20 05:41:36;;;;;;;6.88;5.05;;;22.50;98.10;;;;;;5051781;28;20208;-68
2022/07/20 05:44:03;;;;;;;6.70;4.88;;;22.50;97.90;;;;;;5050615;28;20226;-69
2022/07/20 05:46:30;;;;;;;6.00;4.57;;;22.60;97.40;;;;;;5049493;28;20238;-69
2022/07/20 05:48:56;;;;;;;9.63;5.72;;;22.60;97.00;;;;;;5050609;28;20202;-68
2022/07/20 05:51:23;;;;;;;11.02;5.22;;;22.60;97.30;;;;;;5052240;28;20684;-68
2022/07/20 05:53:50;;;;;;;6.32;4.90;;;22.70;96.80;;;;;;5054361;28;20573;-69
2022/07/20 05:56:18;;;;;;;7.72;5.13;;;22.80;96.80;;;;;;5054151;28;20206;-68
2022/07/20 05:58:45;;;;;;;7.85;5.45;;;22.90;96.80;;;;;;5053641;28;20213;-68
2022/07/20 06:01:11;;;;;;;7.03;5.35;;;22.90;96.50;;;;;;5055913;28;20201;-69
2022/07/20 06:03:38;;;;;;;9.07;5.07;;;23.00;96.30;;;;;;5046727;28;20203;-69
2022/07/20 06:06:06;;;;;;;8.57;4.40;;;23.10;96.00;;;;;;5048275;28;20284;-69
2022/07/20 06:08:33;;;;;;;6.20;4.93;;;23.10;95.90;;;;;;5044873;28;20218;-71
2022/07/20 06:11:00;;;;;;;7.43;4.40;;;23.10;95.70;;;;;;5051559;28;20203;-68
2022/07/20 06:13:28;;;;;;;9.23;4.70;;;23.20;95.40;;;;;;5049599;28;20210;-68
2022/07/20 06:15:55;;;;;;;9.27;4.13;;;23.20;94.70;;;;;;5053861;28;20544;-69
2022/07/20 06:18:22;;;;;;;7.32;4.50;;;23.30;93.90;;;;;;5046072;28;20234;-68
2022/07/20 06:20:49;;;;;;;6.68;4.70;;;23.30;93.60;;;;;;5042835;28;20206;-68
2022/07/20 06:23:16;;;;;;;5.30;4.18;;;23.40;93.60;;;;;;5055623;28;20247;-71
2022/07/20 06:25:43;;;;;;;5.63;4.00;;;23.40;93.50;;;;;;5055490;28;20238;-71
2022/07/20 06:28:10;;;;;;;5.95;4.47;;;23.40;93.10;;;;;;5048931;28;20221;-71
2022/07/20 06:30:38;;;;;;;9.77;5.18;;;23.50;92.70;;;;;;5046381;28;20638;-70
2022/07/20 06:33:05;;;;;;;7.47;4.13;;;23.50;92.30;;;;;;5043082;28;20202;-71
2022/07/20 06:35:31;;;;;;;11.57;4.22;;;23.60;92.50;;;;;;5043081;28;20206;-70
2022/07/20 06:37:58;;;;;;;5.15;4.00;;;23.80;92.60;;;;;;5045906;28;20202;-70
2022/07/20 06:40:25;;;;;;;7.20;4.20;;;23.80;92.40;;;;;;5054010;28;20212;-69
2022/07/20 06:42:52;;;;;;;11.93;3.92;;;23.90;92.00;;;;;;5044565;28;20213;-71
2022/07/20 06:45:19;;;;;;;5.65;3.97;;;24.00;91.80;;;;;;5045920;28;20229;-69
2022/07/20 06:47:49;;;;;;;9.73;4.65;;;24.00;91.60;;;;;;5049176;28;20234;-69
2022/07/20 06:50:16;;;;;;;7.13;4.72;;;24.00;91.60;;;;;;5051861;28;20241;-70
2022/07/20 06:52:43;;;;;;;9.60;4.30;;;24.10;91.60;;;;;;5055121;28;20205;-71
2022/07/20 06:55:10;;;;;;;6.47;4.00;;;24.20;91.60;;;;;;5042599;28;20214;-70
2022/07/20 06:57:37;;;;;;;8.18;4.03;;;24.20;91.70;;;;;;5054694;28;20677;-69
2022/07/20 07:00:05;;;;;;;7.82;4.05;;;24.30;91.80;;;;;;5052195;28;20214;-70
2022/07/20 07:02:32;;;;;;;7.68;4.57;;;24.40;91.60;;;;;;5052778;28;20209;-70
2022/07/20 07:05:00;;;;;;;6.07;4.10;;;24.50;91.50;;;;;;5050999;28;20324;-69
2022/07/20 07:07:27;;;;;;;7.28;3.67;;;24.60;91.20;;;;;;5046769;28;20209;-68
2022/07/20 07:09:54;;;;;;;6.85;4.47;;;24.70;90.80;;;;;;5047616;28;20230;-69
2022/07/20 07:12:21;;;;;;;9.38;4.63;;;24.80;90.20;;;;;;5044820;28;20220;-68
2022/07/20 07:14:48;;;;;;;5.35;4.13;;;24.90;90.20;;;;;;5048930;28;20204;-69
2022/07/20 07:17:15;;;;;;;8.93;3.95;;;25.00;90.00;;;;;;5044699;28;20218;-69
2022/07/20 07:19:42;;;;;;;7.18;4.00;;;25.10;89.60;;;;;;5042122;28;20207;-68
2022/07/20 07:22:10;;;;;;;10.32;4.13;;;25.10;88.20;;;;;;5046830;28;20210;-69
2022/07/20 07:24:37;;;;;;;8.85;3.90;;;25.20;86.80;;;;;;5047558;28;20225;-70
2022/07/20 07:27:04;;;;;;;6.88;3.50;;;25.30;86.90;;;;;;5053509;28;20268;-70
2022/07/20 07:29:31;;;;;;;10.30;5.07;;;25.40;86.50;;;;;;5055058;28;20214;-73
2022/07/20 07:31:59;;;;;;;10.15;5.22;;;25.50;86.80;;;;;;5050117;28;20209;-71
2022/07/20 07:34:26;;;;;;;7.20;3.60;;;25.60;86.50;;;;;;5056210;28;20210;-69
2022/07/20 07:36:53;;;;;;;8.55;4.13;;;25.70;86.10;;;;;;5058128;28;20190;-72
2022/07/20 07:39:22;;;;;;;7.22;3.55;;;25.80;84.40;;;;;;5046903;28;20219;-70
2022/07/20 07:41:49;;;;;;;7.78;5.65;;;25.80;83.50;;;;;;5048638;28;20213;-71
2022/07/20 07:44:16;;;;;;;7.82;4.28;;;25.80;83.20;;;;;;5052142;28;20201;-72
2022/07/20 07:46:43;;;;;;;7.68;4.03;;;25.90;82.90;;;;;;5052873;28;20605;-69
2022/07/20 07:49:10;;;;;;;7.03;3.78;;;25.90;82.60;;;;;;5040779;28;20384;-72
2022/07/20 07:51:37;;;;;;;5.45;3.67;;;26.10;82.80;;;;;;5052350;28;20384;-69
2022/07/20 07:54:04;;;;;;;5.78;4.10;;;26.20;82.10;;;;;;5053715;28;20197;-70
2022/07/20 07:56:32;;;;;;;10.60;5.45;;;26.30;81.20;;;;;;5051383;28;20574;-71
2022/07/20 07:58:59;;;;;;;7.35;4.25;;;26.50;80.60;;;;;;5053993;28;20594;-69
2022/07/20 08:01:26;;;;;;;4.32;3.22;;;26.60;79.30;;;;;;5054114;28;20563;-69
2022/07/20 08:03:53;;;;;;;4.80;3.67;;;26.70;78.60;;;;;;5053766;28;20210;-70
2022/07/20 08:06:19;;;;;;;7.85;3.83;;;26.70;78.00;;;;;;5052894;28;20225;-69
2022/07/20 08:08:46;;;;;;;7.00;3.70;;;26.80;77.60;;;;;;5051815;28;20206;-70
2022/07/20 08:11:15;;;;;;;6.97;3.95;;;26.90;77.20;;;;;;5051893;28;20202;-69
2022/07/20 08:13:43;;;;;;;5.20;3.75;;;27.00;77.30;;;;;;5052236;28;20402;-69
2022/07/20 08:16:09;;;;;;;6.20;3.30;;;27.20;77.40;;;;;;5051959;28;20654;-69
2022/07/20 08:18:36;;;;;;;5.93;3.70;;;27.30;77.10;;;;;;5053032;28;20255;-70
2022/07/20 08:21:03;;;;;;;5.13;3.75;;;27.50;76.90;;;;;;5053450;28;20293;-71
2022/07/20 08:23:30;;;;;;;6.30;3.75;;;27.60;76.30;;;;;;5050382;28;20619;-69
2022/07/20 08:25:57;;;;;;;7.88;3.35;;;27.70;75.30;;;;;;5051608;28;20232;-70
2022/07/20 08:28:24;;;;;;;4.95;3.53;;;27.90;74.30;;;;;;5052203;28;20202;-70
2022/07/20 08:30:53;;;;;;;5.38;3.45;;;27.90;73.70;;;;;;5052888;28;20217;-70
2022/07/20 08:33:20;;;;;;;7.85;3.85;;;28.00;73.50;;;;;;5052389;28;20206;-70
2022/07/20 08:35:47;;;;;;;6.35;3.30;;;28.10;72.90;;;;;;5052644;28;20579;-71
2022/07/20 08:38:14;;;;;;;6.93;4.05;;;28.20;72.30;;;;;;5050826;28;20205;-70
2022/07/20 08:40:41;;;;;;;5.82;3.75;;;28.30;72.10;;;;;;5040132;28;20716;-70
2022/07/20 08:43:08;;;;;;;5.20;3.40;;;28.50;70.70;;;;;;5037837;28;20217;-70
2022/07/20 08:45:35;;;;;;;5.00;3.95;;;28.50;70.60;;;;;;5040902;28;20674;-71
2022/07/20 08:48:07;;;;;;;5.75;3.45;;;28.50;70.70;;;;;;5032536;28;20226;-71
2022/07/20 08:50:35;;;;;;;4.85;3.55;;;28.60;71.10;;;;;;5038542;28;20677;-70
2022/07/20 08:53:02;;;;;;;5.70;3.33;;;28.70;70.00;;;;;;5032679;28;20202;-69
2022/07/20 08:55:30;;;;;;;8.13;3.40;;;28.90;69.80;;;;;;5037446;28;20210;-68
2022/07/20 08:57:57;;;;;;;5.47;3.30;;;29.00;69.90;;;;;;5036830;28;20209;-70
2022/07/20 09:00:24;;;;;;;6.57;3.25;;;29.30;69.30;;;;;;5036436;28;20314;-69
2022/07/20 09:02:57;;;;;;;8.88;3.00;;;29.40;68.50;;;;;;5040610;28;20206;-70
2022/07/20 09:05:28;;;;;;;5.03;3.10;;;29.40;67.80;;;;;;5045983;28;20224;-70
2022/07/20 09:07:57;;;;;;;5.20;3.30;;;29.50;67.60;;;;;;5040453;28;20620;-70
2022/07/20 09:10:25;;;;;;;4.13;3.33;;;29.60;67.10;;;;;;5049227;28;20229;-71
2022/07/20 09:12:58;;;;;;;5.57;2.97;;;29.70;66.80;;;;;;5043977;28;20220;-68
2022/07/20 09:15:34;;;;;;;3.78;2.85;;;29.90;66.80;;;;;;5051073;28;20194;-71
2022/07/20 09:18:16;;;;;;;5.70;3.53;;;30.00;65.30;;;;;;5051918;28;20198;-71
2022/07/20 09:20:46;;;;;;;3.40;2.70;;;30.10;64.60;;;;;;5034863;28;20210;-70
2022/07/20 09:23:15;;;;;;;6.00;3.15;;;30.20;64.40;;;;;;5037016;28;20209;-70
2022/07/20 09:25:54;;;;;;;4.55;3.40;;;30.20;64.00;;;;;;5051403;28;20244;-71
2022/07/20 09:28:21;;;;;;;4.55;3.92;;;30.30;63.70;;;;;;5044094;28;20209;-69
2022/07/20 09:30:53;;;;;;;5.95;3.40;;;30.30;63.80;;;;;;5055977;28;20576;-70
2022/07/20 09:33:26;;;;;;;4.32;3.05;;;30.40;63.20;;;;;;5055479;28;20209;-71
2022/07/20 09:35:54;;;;;;;5.03;3.38;;;30.50;63.80;;;;;;5049163;28;20225;-70
2022/07/20 09:38:23;;;;;;;6.75;3.33;;;30.70;63.50;;;;;;5052541;28;20643;-70
2022/07/20 09:40:50;;;;;;;3.83;2.60;;;30.90;63.20;;;;;;5043751;28;20214;-70
2022/07/20 09:43:28;;;;;;;3.70;2.50;;;31.00;61.70;;;;;;5056159;28;20202;-70
2022/07/20 09:45:55;;;;;;;3.05;2.75;;;31.10;61.10;;;;;;5050054;28;20217;-69
2022/07/20 09:48:24;;;;;;;6.82;2.75;;;31.30;60.70;;;;;;5044262;28;20337;-69
2022/07/20 09:50:51;;;;;;;3.50;3.20;;;31.40;60.70;;;;;;5042149;28;20226;-69
2022/07/20 09:53:19;;;;;;;3.05;2.75;;;31.50;60.30;;;;;;5052038;28;20562;-70
2022/07/20 09:55:48;;;;;;;5.00;3.22;;;31.60;59.20;;;;;;5051759;28;20550;-70
2022/07/20 09:58:16;;;;;;;3.83;2.75;;;31.70;59.70;;;;;;5055822;28;20205;-70
2022/07/20 10:00:43;;;;;;;4.55;3.22;;;31.80;59.70;;;;;;5055427;28;20205;-69
2022/07/20 10:03:13;;;;;;;5.60;2.42;;;32.00;59.20;;;;;;5054763;28;20214;-69
2022/07/20 10:05:40;;;;;;;5.35;2.75;;;32.10;58.80;;;;;;5055302;28;20234;-70
2022/07/20 10:08:07;;;;;;;2.90;2.60;;;32.30;58.20;;;;;;5053726;28;20570;-69
2022/07/20 10:10:36;;;;;;;3.65;2.80;;;32.30;57.50;;;;;;5053603;28;20210;-70
2022/07/20 10:13:03;;;;;;;4.30;2.67;;;32.40;57.60;;;;;;5054709;28;20706;-69
2022/07/20 10:15:38;;;;;;;4.68;2.85;;;32.40;57.00;;;;;;5054468;28;20217;-69
2022/07/20 10:18:09;;;;;;;3.60;2.75;;;32.50;56.90;;;;;;5055050;28;20566;-71
2022/07/20 10:20:37;;;;;;;6.38;2.92;;;32.60;57.00;;;;;;5046479;28;20206;-69
2022/07/20 10:23:34;;;;;;;3.03;2.25;;;32.60;56.50;;;;;;5054509;28;20287;-70
2022/07/20 10:26:03;;;;;;;4.95;2.97;;;32.50;56.70;;;;;;4992225;28;20219;-69
2022/07/20 10:28:35;;;;;;;3.65;2.58;;;32.60;56.60;;;;;;5029226;28;20206;-70
2022/07/20 10:31:05;;;;;;;7.03;2.80;;;32.70;56.50;;;;;;5054878;28;20696;-70
2022/07/20 10:33:34;;;;;;;4.68;2.83;;;32.70;56.00;;;;;;5050826;28;20202;-70
2022/07/20 10:38:57;;;;;;;3.65;2.60;;;32.90;55.80;;;;;;5040178;28;20197;-71
2022/07/20 10:41:36;;;;;;;4.07;2.88;;;33.10;55.60;;;;;;5049257;28;20242;-70
2022/07/20 10:44:28;;;;;;;5.55;3.28;;;33.30;55.20;;;;;;5041187;28;20688;-69
2022/07/20 10:46:56;;;;;;;4.93;3.20;;;33.30;55.20;;;;;;5054230;28;20284;-68
2022/07/20 10:49:56;;;;;;;2.97;2.67;;;33.40;55.20;;;;;;5054798;28;20202;-70
2022/07/20 10:52:31;;;;;;;4.50;2.55;;;33.50;54.70;;;;;;5053496;28;20233;-70
2022/07/20 10:54:58;;;;;;;3.20;2.38;;;33.50;54.10;;;;;;5042069;28;20677;-70
2022/07/20 10:57:27;;;;;;;5.55;2.60;;;33.50;54.20;;;;;;5051830;28;20209;-70
2022/07/20 11:00:12;;;;;;;3.65;2.85;;;33.50;54.20;;;;;;5052294;28;20382;-71
2022/07/20 11:02:39;;;;;;;3.55;2.70;;;33.70;54.00;;;;;;5051293;28;20267;-70
2022/07/20 11:05:18;;;;;;;3.78;2.58;;;33.80;53.50;;;;;;5054446;28;20210;-70
2022/07/20 11:07:45;;;;;;;4.13;2.25;;;33.80;53.20;;;;;;5049164;28;20206;-70
2022/07/20 11:10:21;;;;;;;4.55;2.42;;;33.80;53.00;;;;;;5050817;28;20244;-69
2022/07/20 11:12:57;;;;;;;2.20;2.00;;;33.90;52.40;;;;;;5052840;28;20297;-70
2022/07/20 11:15:24;;;;;;;4.28;2.40;;;34.00;52.20;;;;;;5041883;28;20686;-69
2022/07/20 11:17:55;;;;;;;2.97;2.50;;;34.00;51.90;;;;;;5046938;28;20198;-70
2022/07/20 11:20:22;;;;;;;3.63;2.25;;;34.10;51.80;;;;;;5054204;28;20643;-70
2022/07/20 11:22:49;;;;;;;2.58;2.25;;;34.10;51.80;;;;;;5052978;28;20515;-69
2022/07/20 11:25:15;;;;;;;4.22;2.53;;;34.10;52.50;;;;;;5053949;28;20712;-71
2022/07/20 11:27:42;;;;;;;2.70;2.15;;;34.20;51.90;;;;;;5053696;28;20253;-70
2022/07/20 11:30:12;;;;;;;4.68;2.63;;;34.20;51.60;;;;;;5054006;28;20217;-70
2022/07/20 11:32:52;;;;;;;2.75;2.35;;;34.30;51.50;;;;;;5053285;28;20221;-70
2022/07/20 11:35:20;;;;;;;2.88;2.08;;;34.40;51.20;;;;;;5053909;28;20198;-70
2022/07/20 11:37:51;;;;;;;2.55;2.00;;;34.40;50.90;;;;;;5052049;28;20228;-70
2022/07/20 11:40:18;;;;;;;4.00;2.28;;;34.40;51.00;;;;;;5052289;28;20217;-69
2022/07/20 11:43:05;;;;;;;4.20;2.10;;;34.40;51.10;;;;;;5053956;28;20214;-69
2022/07/20 11:45:34;;;;;;;3.78;2.33;;;34.50;51.00;;;;;;5051763;28;20212;-70
2022/07/20 11:48:03;;;;;;;4.10;2.40;;;34.50;51.70;;;;;;5042293;28;20241;-69
2022/07/20 11:50:32;;;;;;;3.15;2.47;;;34.40;50.90;;;;;;5050680;28;20301;-69
2022/07/20 11:52:59;;;;;;;3.80;2.20;;;34.40;51.00;;;;;;5053193;28;20241;-70
2022/07/20 11:55:36;;;;;;;2.85;2.63;;;34.40;50.70;;;;;;5052666;28;20202;-70
2022/07/20 11:58:04;;;;;;;3.22;2.35;;;34.40;51.20;;;;;;5053774;28;20300;-70
2022/07/20 12:00:31;;;;;;;9.10;2.88;;;34.50;51.50;;;;;;5051419;28;20502;-70
2022/07/20 12:03:00;;;;;;;2.97;2.22;;;34.40;50.50;;;;;;5053203;28;20761;-70
2022/07/20 12:05:27;;;;;;;4.68;2.53;;;34.40;50.80;;;;;;5052076;28;20216;-69
2022/07/20 12:08:11;;;;;;;3.45;2.33;;;34.30;50.90;;;;;;5050604;28;20229;-70
2022/07/20 12:10:41;;;;;;;3.53;2.67;;;34.30;51.10;;;;;;5051977;28;20551;-70
2022/07/20 12:13:10;;;;;;;2.45;2.25;;;34.30;50.70;;;;;;5051858;28;20630;-70
2022/07/20 12:15:37;;;;;;;2.92;2.60;;;34.40;50.90;;;;;;5052095;28;20214;-70
2022/07/20 12:18:05;;;;;;;2.40;2.20;;;34.40;51.10;;;;;;5052830;28;20212;-69
2022/07/20 12:20:32;;;;;;;2.92;2.40;;;34.50;50.60;;;;;;5045897;28;20207;-70
2022/07/20 12:23:01;;;;;;;4.35;2.50;;;34.60;50.50;;;;;;5050912;28;20289;-69
2022/07/20 12:25:36;;;;;;;3.95;2.75;;;34.60;50.00;;;;;;5048434;28;20237;-69
2022/07/20 12:28:03;;;;;;;3.42;2.15;;;34.70;50.00;;;;;;5052867;28;20235;-69
2022/07/20 12:30:34;;;;;;;2.55;2.35;;;34.70;49.60;;;;;;5048827;28;20210;-69
2022/07/20 12:33:11;;;;;;;3.63;3.05;;;34.60;49.50;;;;;;5051884;28;20556;-70
2022/07/20 12:35:39;;;;;;;2.85;2.30;;;34.60;49.80;;;;;;5036995;28;20204;-69
2022/07/20 12:38:06;;;;;;;2.40;2.20;;;34.70;49.50;;;;;;5051830;28;20679;-70
2022/07/20 12:40:41;;;;;;;4.88;2.00;;;34.80;49.00;;;;;;5048322;28;20214;-70
2022/07/20 12:43:27;;;;;;;5.72;2.45;;;34.70;49.10;;;;;;5047630;28;20206;-70
2022/07/20 12:45:54;;;;;;;2.42;1.80;;;34.60;49.20;;;;;;5040420;28;20212;-71
2022/07/20 12:48:23;;;;;;;3.47;2.17;;;34.60;49.20;;;;;;5051835;28;20705;-70
2022/07/20 12:50:49;;;;;;;2.92;2.28;;;34.60;49.20;;;;;;5046895;28;20210;-70
2022/07/20 12:53:16;;;;;;;3.45;2.38;;;34.60;48.80;;;;;;5042124;28;20206;-70
2022/07/20 12:55:43;;;;;;;2.95;2.03;;;34.50;49.00;;;;;;5050695;28;20219;-70
2022/07/20 12:58:11;;;;;;;2.20;2.00;;;34.50;49.10;;;;;;5051967;28;20297;-71